Time;durP1;ratioP1;P1;durP2;ratioP2;P2;SDS_P1;SDS_P2;PMS_P1;PMS_P2;Temp;Humidity;BMP_temperature;BMP_pressure;BME280_temperature;BME280_humidity;BME280_pressure;Samples;Min_cycle;Max_cycle;Signal;HPM_P1;HPM_P2
2022/04/26 03:37:56;;;;;;;7.18;6.20;;;;;;;;;;10533165;28;20412;-96
2022/04/26 03:42:58;;;;;;;8.52;6.28;;;;;;;;;;10533657;28;20713;-96
2022/04/26 03:48:02;;;;;;;7.80;5.97;;;;;;;;;;10533727;28;20412;-96
2022/04/26 03:53:04;;;;;;;9.43;6.50;;;;;;;;;;10533338;28;20411;-96
2022/04/26 03:58:07;;;;;;;11.30;9.13;;;;;;;;;;10533495;28;20412;-95
2022/04/26 04:03:13;;;;;;;10.30;8.40;;;;;;;;;;10531410;28;20907;-96
2022/04/26 04:08:15;;;;;;;11.95;8.38;;;;;;;;;;10494476;28;20433;-96
2022/04/26 04:13:18;;;;;;;12.18;8.23;;;;;;;;;;10548752;28;20452;-96
2022/04/26 04:23:41;;;;;;;9.80;7.07;;;;;;;;;;10543860;28;20393;-94
2022/04/26 04:28:47;;;;;;;10.17;7.13;;;;;;;;;;10556709;28;20825;-95
2022/04/26 04:33:51;;;;;;;8.65;6.65;;;;;;;;;;10550823;28;20417;-94
2022/04/26 04:38:53;;;;;;;8.45;7.00;;;;;;;;;;10564759;22;20420;-92
2022/04/26 04:43:55;;;;;;;9.30;7.17;;;;;;;;;;10542649;28;20428;-92
2022/04/26 04:48:58;;;;;;;10.27;7.05;;;;;;;;;;10549062;28;20406;-91
2022/04/26 04:54:01;;;;;;;8.90;7.27;;;;;;;;;;10544256;28;20411;-90
2022/04/26 04:59:07;;;;;;;8.17;6.10;;;;;;;;;;10544544;28;20416;-90
2022/04/26 05:04:12;;;;;;;8.48;6.25;;;;;;;;;;10548898;28;20916;-92
2022/04/26 05:09:14;;;;;;;8.05;6.30;;;;;;;;;;10546644;28;20461;-92
2022/04/26 05:14:16;;;;;;;8.20;6.40;;;;;;;;;;10548937;28;20498;-92
2022/04/26 05:19:19;;;;;;;8.88;6.85;;;;;;;;;;10545801;28;20446;-92
2022/04/26 05:29:37;;;;;;;10.93;8.67;;;;;;;;;;10534603;28;20755;-92
2022/04/26 05:34:40;;;;;;;11.52;8.82;;;;;;;;;;10551450;28;20440;-92
2022/04/26 05:39:49;;;;;;;10.98;9.20;;;;;;;;;;10544232;28;20466;-92
2022/04/26 05:44:54;;;;;;;10.90;9.23;;;;;;;;;;10545911;28;20414;-92
2022/04/26 05:49:58;;;;;;;11.05;8.13;;;;;;;;;;10550860;28;20399;-92
2022/04/26 05:55:00;;;;;;;11.75;8.38;;;;;;;;;;10547860;28;20882;-91
2022/04/26 06:00:04;;;;;;;12.10;9.02;;;;;;;;;;10543084;28;20968;-92
2022/04/26 06:05:08;;;;;;;9.50;8.50;;;;;;;;;;10546633;28;20397;-92
2022/04/26 06:10:11;;;;;;;11.47;8.87;;;;;;;;;;10547753;28;20428;-91
2022/04/26 06:15:13;;;;;;;12.50;9.57;;;;;;;;;;10571821;28;20439;-92
2022/04/26 06:20:17;;;;;;;11.67;9.63;;;;;;;;;;10551516;28;20884;-92
2022/04/26 06:25:19;;;;;;;11.98;9.23;;;;;;;;;;10546029;28;20400;-92
2022/04/26 06:30:21;;;;;;;12.63;9.80;;;;;;;;;;10543708;28;20641;-92
2022/04/26 06:35:25;;;;;;;11.98;9.35;;;;;;;;;;10549738;28;20760;-91
2022/04/26 06:40:29;;;;;;;11.48;8.68;;;;;;;;;;10545449;28;20422;-92
2022/04/26 06:45:31;;;;;;;9.45;8.18;;;;;;;;;;10553917;28;20406;-91
2022/04/26 06:50:36;;;;;;;10.23;8.33;;;;;;;;;;10537640;28;20431;-92
2022/04/26 06:55:38;;;;;;;9.88;7.55;;;;;;;;;;10545279;28;20407;-91
2022/04/26 07:00:40;;;;;;;8.27;6.53;;;;;;;;;;10541837;28;20412;-91
2022/04/26 07:05:44;;;;;;;10.35;6.30;;;;;;;;;;10544281;28;20412;-91
2022/04/26 07:10:46;;;;;;;7.75;6.20;;;;;;;;;;10544327;28;20485;-91
2022/04/26 07:15:48;;;;;;;7.37;5.70;;;;;;;;;;10548818;28;20446;-91
2022/04/26 07:20:51;;;;;;;6.10;4.80;;;;;;;;;;10548880;28;20503;-91
2022/04/26 07:25:55;;;;;;;7.33;4.60;;;;;;;;;;10554209;28;20447;-91
2022/04/26 07:30:57;;;;;;;5.13;3.80;;;;;;;;;;10552108;28;20422;-91
2022/04/26 07:36:01;;;;;;;4.33;3.40;;;;;;;;;;10551849;28;20534;-91
2022/04/26 07:41:03;;;;;;;5.80;3.40;;;;;;;;;;10555768;28;20477;-91
2022/04/26 07:46:04;;;;;;;4.05;2.90;;;;;;;;;;10545339;28;20725;-91
2022/04/26 07:51:09;;;;;;;4.18;2.67;;;;;;;;;;10552951;28;20400;-92
2022/04/26 07:56:13;;;;;;;5.15;3.42;;;;;;;;;;10561251;28;20402;-94
2022/04/26 08:01:15;;;;;;;5.50;3.08;;;;;;;;;;10551368;28;20467;-94
2022/04/26 08:06:18;;;;;;;4.97;2.97;;;;;;;;;;10551952;28;20411;-91
2022/04/26 08:11:20;;;;;;;6.65;3.50;;;;;;;;;;10552002;28;20957;-91
2022/04/26 08:16:22;;;;;;;6.23;3.60;;;;;;;;;;10550680;28;20402;-92
2022/04/26 08:21:26;;;;;;;5.55;3.47;;;;;;;;;;10550377;28;20415;-91
2022/04/26 08:31:48;;;;;;;6.88;4.25;;;;;;;;;;10543832;28;20385;-91
2022/04/26 08:36:51;;;;;;;6.95;4.55;;;;;;;;;;10549183;28;20667;-90
2022/04/26 08:41:58;;;;;;;4.88;4.03;;;;;;;;;;10550754;28;20414;-91
2022/04/26 08:52:20;;;;;;;7.80;4.60;;;;;;;;;;10546357;28;20379;-91
2022/04/26 08:57:22;;;;;;;7.28;4.03;;;;;;;;;;10551452;28;20996;-91
2022/04/26 09:02:24;;;;;;;7.55;4.65;;;;;;;;;;10545297;28;20418;-91
2022/04/26 09:07:33;;;;;;;7.07;4.90;;;;;;;;;;10529503;28;20487;-91
2022/04/26 09:13:03;;;;;;;7.97;4.90;;;;;;;;;;10553397;28;20414;-91
2022/04/26 09:18:26;;;;;;;6.15;4.90;;;;;;;;;;10548262;28;20404;-90
2022/04/26 09:23:32;;;;;;;7.68;4.70;;;;;;;;;;10547173;28;20439;-91
2022/04/26 09:28:34;;;;;;;6.28;4.90;;;;;;;;;;10547999;28;20921;-91
2022/04/26 09:33:42;;;;;;;6.67;5.10;;;;;;;;;;10539970;28;20405;-91
2022/04/26 09:38:52;;;;;;;7.63;5.78;;;;;;;;;;10544156;28;20768;-91
2022/04/26 09:44:01;;;;;;;7.27;5.40;;;;;;;;;;10544404;28;20411;-91
2022/04/26 09:49:06;;;;;;;6.57;4.90;;;;;;;;;;10550579;28;20402;-90
2022/04/26 09:54:09;;;;;;;6.47;4.70;;;;;;;;;;10542800;28;20407;-91
2022/04/26 09:59:15;;;;;;;6.97;4.70;;;;;;;;;;10547649;28;20419;-89
2022/04/26 10:04:20;;;;;;;5.85;5.15;;;;;;;;;;10547572;28;20417;-91
2022/04/26 10:09:24;;;;;;;5.70;4.83;;;;;;;;;;10552583;28;20897;-90
2022/04/26 10:14:29;;;;;;;6.97;4.22;;;;;;;;;;10541245;28;20467;-91
2022/04/26 10:19:38;;;;;;;7.97;4.13;;;;;;;;;;10545061;28;20475;-91
2022/04/26 10:25:12;;;;;;;6.95;3.78;;;;;;;;;;10534425;28;20495;-91
2022/04/26 10:30:14;;;;;;;6.93;6.05;;;;;;;;;;10542722;28;20410;-91
2022/04/26 10:35:32;;;;;;;9.50;5.75;;;;;;;;;;10545167;28;20438;-91
2022/04/26 10:41:09;;;;;;;8.20;6.25;;;;;;;;;;10544557;28;20883;-91
2022/04/26 10:46:12;;;;;;;7.43;6.40;;;;;;;;;;10541758;28;20415;-91
2022/04/26 10:51:35;;;;;;;8.23;6.40;;;;;;;;;;10546421;28;20396;-91
2022/04/26 10:56:38;;;;;;;8.77;6.90;;;;;;;;;;10547710;28;20398;-91
2022/04/26 11:01:40;;;;;;;9.77;6.90;;;;;;;;;;10557054;28;20432;-91
2022/04/26 11:06:42;;;;;;;9.23;7.55;;;;;;;;;;10553620;28;20434;-92
2022/04/26 11:11:50;;;;;;;10.20;6.65;;;;;;;;;;10552525;28;20479;-91
2022/04/26 11:16:56;;;;;;;9.20;6.90;;;;;;;;;;10550975;28;20519;-91
2022/04/26 11:22:04;;;;;;;7.55;5.90;;;;;;;;;;10552193;28;20442;-91
2022/04/26 11:32:30;;;;;;;5.78;5.18;;;;;;;;;;10549811;28;20955;-92
2022/04/26 11:37:32;;;;;;;7.80;5.60;;;;;;;;;;10543250;28;20406;-92
2022/04/26 11:42:37;;;;;;;8.75;7.90;;;;;;;;;;10549810;28;20446;-92
2022/04/26 11:47:44;;;;;;;6.57;4.80;;;;;;;;;;10543826;28;20900;-92
2022/04/26 11:52:47;;;;;;;8.07;5.40;;;;;;;;;;10550576;28;20415;-92
2022/04/26 11:57:52;;;;;;;5.80;5.20;;;;;;;;;;10552364;28;20404;-92
2022/04/26 12:02:54;;;;;;;6.32;5.18;;;;;;;;;;10550637;28;20424;-91
2022/04/26 12:07:56;;;;;;;7.22;5.78;;;;;;;;;;10550077;28;20428;-91
2022/04/26 12:13:02;;;;;;;7.82;5.60;;;;;;;;;;10545427;28;20399;-91
2022/04/26 12:18:14;;;;;;;7.40;5.65;;;;;;;;;;10550704;28;20780;-92
2022/04/26 12:23:22;;;;;;;6.82;5.00;;;;;;;;;;10540196;28;20807;-92
2022/04/26 12:28:25;;;;;;;6.50;5.78;;;;;;;;;;10552392;28;20426;-90
2022/04/26 12:33:29;;;;;;;8.07;5.67;;;;;;;;;;10552503;28;20397;-91
2022/04/26 12:38:45;;;;;;;7.65;5.78;;;;;;;;;;10549993;28;20414;-92
2022/04/26 12:44:01;;;;;;;6.28;4.15;;;;;;;;;;10546520;28;20402;-91
2022/04/26 12:54:22;;;;;;;6.50;4.00;;;;;;;;;;10544197;28;20391;-91
2022/04/26 12:59:34;;;;;;;6.13;3.88;;;;;;;;;;10548594;28;20470;-92
2022/04/26 13:04:36;;;;;;;5.82;3.30;;;;;;;;;;10548631;28;20399;-92
2022/04/26 13:09:38;;;;;;;6.10;3.65;;;;;;;;;;10548526;28;20466;-91
2022/04/26 13:14:42;;;;;;;8.75;4.82;;;;;;;;;;10544531;28;20504;-90
2022/04/26 13:19:44;;;;;;;5.68;3.97;;;;;;;;;;10543406;28;20416;-92
2022/04/26 13:24:46;;;;;;;5.77;3.70;;;;;;;;;;10546755;28;20908;-92
2022/04/26 13:29:50;;;;;;;6.47;3.60;;;;;;;;;;10547154;28;20454;-92
2022/04/26 13:34:52;;;;;;;8.18;3.58;;;;;;;;;;10546942;28;20413;-92
2022/04/26 13:39:58;;;;;;;6.22;3.72;;;;;;;;;;10543429;28;20915;-92
2022/04/26 13:45:02;;;;;;;6.05;3.40;;;;;;;;;;10546434;28;20531;-92
2022/04/26 13:50:05;;;;;;;7.00;3.53;;;;;;;;;;10544986;28;20459;-92
2022/04/26 13:55:07;;;;;;;4.90;3.30;;;;;;;;;;10544443;28;20407;-92
2022/04/26 14:00:12;;;;;;;5.97;3.30;;;;;;;;;;10544562;28;20464;-92
2022/04/26 14:05:15;;;;;;;4.95;3.15;;;;;;;;;;10540953;28;20892;-92
2022/04/26 14:10:17;;;;;;;5.45;3.50;;;;;;;;;;10545957;28;20807;-93
2022/04/26 14:26:03;;;;;;;5.47;3.90;;;;;;;;;;10544507;28;20835;-92
2022/04/26 14:31:06;;;;;;;6.20;4.00;;;;;;;;;;10539829;28;20466;-92
2022/04/26 14:36:08;;;;;;;5.13;3.60;;;;;;;;;;10494286;28;934472;-90
2022/04/26 14:41:10;;;;;;;5.40;3.67;;;;;;;;;;10540696;28;20411;-92
2022/04/26 14:46:14;;;;;;;6.72;4.00;;;;;;;;;;10540468;28;20808;-92
2022/04/26 14:51:16;;;;;;;6.53;4.47;;;;;;;;;;10544901;28;20407;-92
2022/04/26 14:56:18;;;;;;;6.77;4.40;;;;;;;;;;10551677;28;20435;-91
2022/04/26 15:01:22;;;;;;;8.15;4.60;;;;;;;;;;10542457;28;20490;-93
2022/04/26 15:06:24;;;;;;;5.97;4.30;;;;;;;;;;10543539;28;20459;-92
2022/04/26 15:11:26;;;;;;;6.20;4.63;;;;;;;;;;10548192;28;20427;-92
2022/04/26 15:16:39;;;;;;;6.43;4.28;;;;;;;;;;10541977;28;20449;-90
2022/04/26 15:21:42;;;;;;;8.53;4.93;;;;;;;;;;10546568;28;20455;-92
2022/04/26 15:26:44;;;;;;;8.57;5.93;;;;;;;;;;10536671;28;20392;-92
2022/04/26 15:31:47;;;;;;;9.27;6.00;;;;;;;;;;10544431;28;20411;-92
2022/04/26 15:36:49;;;;;;;8.90;6.43;;;;;;;;;;10544201;28;20964;-91
2022/04/26 15:41:51;;;;;;;11.05;6.90;;;;;;;;;;10550075;28;20442;-91
2022/04/26 15:46:56;;;;;;;8.90;7.03;;;;;;;;;;10548460;28;20520;-91
2022/04/26 15:51:58;;;;;;;7.93;5.07;;;;;;;;;;10552389;28;20894;-91
2022/04/26 15:57:00;;;;;;;6.57;4.97;;;;;;;;;;10551684;28;20485;-91
2022/04/26 16:02:07;;;;;;;4.10;3.70;;;;;;;;;;10549662;28;20692;-91
2022/04/26 16:07:09;;;;;;;6.47;4.40;;;;;;;;;;10551786;28;20441;-91
2022/04/26 16:22:51;;;;;;;5.25;4.50;;;;;;;;;;10549635;28;20408;-92
2022/04/26 16:27:55;;;;;;;4.57;3.70;;;;;;;;;;10546426;28;20464;-92
2022/04/26 16:33:01;;;;;;;5.78;3.85;;;;;;;;;;10553416;28;20431;-92
2022/04/26 16:38:03;;;;;;;4.68;3.72;;;;;;;;;;10547327;28;20903;-92
2022/04/26 16:43:05;;;;;;;4.60;3.72;;;;;;;;;;10550990;28;20442;-92
2022/04/26 16:48:09;;;;;;;5.00;4.50;;;;;;;;;;10551178;28;20421;-92
2022/04/26 16:53:11;;;;;;;5.90;4.97;;;;;;;;;;10546089;28;20483;-92
2022/04/26 16:58:15;;;;;;;6.22;4.85;;;;;;;;;;10550353;28;20490;-92
2022/04/26 17:03:19;;;;;;;6.10;4.57;;;;;;;;;;10550457;28;20905;-92
2022/04/26 17:08:21;;;;;;;5.57;4.77;;;;;;;;;;10540369;28;20412;-93
2022/04/26 17:13:23;;;;;;;7.45;5.50;;;;;;;;;;10550160;28;20448;-92
2022/04/26 17:18:26;;;;;;;7.43;6.18;;;;;;;;;;10551675;28;20490;-91
2022/04/26 17:23:28;;;;;;;9.25;7.18;;;;;;;;;;10546512;28;20505;-90
2022/04/26 17:28:30;;;;;;;10.25;7.88;;;;;;;;;;10546652;28;20469;-92
2022/04/26 17:33:34;;;;;;;11.73;9.07;;;;;;;;;;10548696;28;20445;-92
2022/04/26 17:38:36;;;;;;;9.30;7.90;;;;;;;;;;10542752;28;20775;-92
2022/04/26 17:43:38;;;;;;;10.05;8.40;;;;;;;;;;10543799;28;20436;-92
2022/04/26 17:48:42;;;;;;;10.43;8.45;;;;;;;;;;10551369;28;20489;-91
2022/04/26 17:59:03;;;;;;;10.25;8.38;;;;;;;;;;10545373;28;20392;-92
2022/04/26 18:04:07;;;;;;;7.32;5.63;;;;;;;;;;10545759;28;21081;-92
2022/04/26 18:09:09;;;;;;;6.03;4.03;;;;;;;;;;10547131;28;21009;-91
2022/04/26 18:14:13;;;;;;;5.07;3.80;;;;;;;;;;10546272;28;20973;-92
2022/04/26 18:19:17;;;;;;;4.20;3.03;;;;;;;;;;10547353;28;20408;-91
2022/04/26 18:24:20;;;;;;;2.67;2.40;;;;;;;;;;10543224;28;20726;-92
2022/04/26 18:29:22;;;;;;;2.92;2.65;;;;;;;;;;10547823;28;21207;-89
2022/04/26 18:34:25;;;;;;;4.43;3.23;;;;;;;;;;10545716;28;20952;-82
2022/04/26 18:39:29;;;;;;;4.70;3.80;;;;;;;;;;10541883;28;20491;-90
2022/04/26 18:44:31;;;;;;;5.10;3.90;;;;;;;;;;10542769;28;20400;-91
2022/04/26 18:49:36;;;;;;;6.50;5.00;;;;;;;;;;10512547;22;20522;-90
2022/04/26 18:54:39;;;;;;;7.30;6.00;;;;;;;;;;10459865;28;20787;-90
2022/04/26 18:59:43;;;;;;;8.45;6.88;;;;;;;;;;10461263;28;20421;-89
2022/04/26 19:04:46;;;;;;;10.00;6.82;;;;;;;;;;10455277;28;20501;-86
2022/04/26 19:15:09;;;;;;;10.00;7.10;;;;;;;;;;10453522;28;20399;-92
2022/04/26 19:20:13;;;;;;;10.13;6.73;;;;;;;;;;10470354;28;20502;-92
2022/04/26 19:25:17;;;;;;;10.05;7.10;;;;;;;;;;10476588;28;20415;-92
2022/04/26 19:30:18;;;;;;;16.27;14.82;;;;;;;;;;10466652;28;20412;-80
2022/04/26 19:35:22;;;;;;;8.57;7.53;;;;;;;;;;10462203;28;20987;-83
2022/04/26 19:40:24;;;;;;;9.43;6.97;;;;;;;;;;10454393;28;20461;-81
2022/04/26 19:45:27;;;;;;;8.93;7.78;;;;;;;;;;10457629;28;20879;-81
2022/04/26 19:55:49;;;;;;;15.60;8.60;;;;;;;;;;10461656;28;20399;-81
2022/04/26 20:00:51;;;;;;;11.70;9.30;;;;;;;;;;10465465;28;20415;-81
2022/04/26 20:05:55;;;;;;;12.43;10.30;;;;;;;;;;10461918;28;20844;-81
2022/04/26 20:10:57;;;;;;;11.23;10.07;;;;;;;;;;10468353;28;20550;-82
2022/04/26 20:15:59;;;;;;;10.50;9.50;;;;;;;;;;10472831;28;20548;-82
2022/04/26 20:21:04;;;;;;;11.43;9.15;;;;;;;;;;10463097;28;20427;-82
2022/04/26 20:31:25;;;;;;;11.23;9.33;;;;;;;;;;10470106;28;20488;-80
2022/04/26 20:36:28;;;;;;;12.13;9.10;;;;;;;;;;10461842;28;20494;-83
2022/04/26 20:41:30;;;;;;;10.65;9.55;;;;;;;;;;10464272;28;20781;-82
2022/04/26 20:46:32;;;;;;;10.90;9.88;;;;;;;;;;10475475;28;20417;-80
2022/04/26 20:51:35;;;;;;;14.73;12.10;;;;;;;;;;10473301;28;20501;-81
2022/04/26 20:56:37;;;;;;;12.90;11.20;;;;;;;;;;10468736;28;20411;-82
2022/04/26 21:01:39;;;;;;;11.93;10.38;;;;;;;;;;10464613;28;20853;-82
2022/04/26 21:06:42;;;;;;;11.80;9.80;;;;;;;;;;10460705;28;20406;-83
2022/04/26 21:11:44;;;;;;;11.48;9.40;;;;;;;;;;10458138;28;20506;-83
2022/04/26 21:16:48;;;;;;;11.35;9.77;;;;;;;;;;10453305;28;20412;-80
2022/04/26 21:21:51;;;;;;;10.85;9.63;;;;;;;;;;10456689;28;20427;-80
2022/04/26 21:26:53;;;;;;;11.85;10.27;;;;;;;;;;10460457;28;20415;-81
2022/04/26 21:31:55;;;;;;;12.43;10.70;;;;;;;;;;10457177;28;20418;-81
2022/04/26 21:36:58;;;;;;;12.57;11.27;;;;;;;;;;10464847;28;20503;-82
2022/04/26 21:42:00;;;;;;;13.27;11.57;;;;;;;;;;10477507;28;20453;-83
2022/04/26 21:47:02;;;;;;;13.77;12.32;;;;;;;;;;10476159;28;20428;-83
2022/04/26 21:52:06;;;;;;;14.57;12.77;;;;;;;;;;10476738;28;20536;-83
2022/04/26 21:57:08;;;;;;;14.70;11.95;;;;;;;;;;10477431;28;20416;-83
2022/04/26 22:02:12;;;;;;;13.05;11.65;;;;;;;;;;10471749;28;21000;-81
2022/04/26 22:07:15;;;;;;;14.15;12.75;;;;;;;;;;10473454;28;20653;-81
2022/04/26 22:12:17;;;;;;;17.02;14.27;;;;;;;;;;10473194;28;20394;-81
2022/04/26 22:17:18;;;;;;;16.10;14.40;;;;;;;;;;10470762;28;20416;-79
2022/04/26 22:22:22;;;;;;;17.05;14.70;;;;;;;;;;10472813;28;20418;-80
2022/04/26 22:27:24;;;;;;;18.10;15.38;;;;;;;;;;10468356;28;20402;-78
2022/04/26 22:32:25;;;;;;;16.60;14.90;;;;;;;;;;10473146;28;20580;-81
2022/04/26 22:37:29;;;;;;;16.55;14.82;;;;;;;;;;10471269;28;20489;-81
2022/04/26 22:42:30;;;;;;;16.08;14.38;;;;;;;;;;10475581;28;20426;-82
2022/04/26 22:47:32;;;;;;;16.93;14.20;;;;;;;;;;10470551;28;20481;-83
2022/04/26 22:52:36;;;;;;;14.93;13.40;;;;;;;;;;10484110;28;20520;-81
2022/04/26 22:57:38;;;;;;;16.00;13.13;;;;;;;;;;10485976;28;20920;-81
2022/04/26 23:02:42;;;;;;;13.63;12.10;;;;;;;;;;10479152;28;20429;-81
2022/04/26 23:07:46;;;;;;;14.20;12.70;;;;;;;;;;10477436;28;20991;-81
2022/04/26 23:12:47;;;;;;;14.05;12.35;;;;;;;;;;10474924;28;20486;-81
2022/04/26 23:17:49;;;;;;;14.93;12.02;;;;;;;;;;10474077;28;20412;-81
2022/04/26 23:22:52;;;;;;;13.90;12.45;;;;;;;;;;10474108;28;20514;-80
2022/04/26 23:27:54;;;;;;;12.77;11.48;;;;;;;;;;10474170;28;20489;-81
2022/04/26 23:32:56;;;;;;;13.07;11.37;;;;;;;;;;10477915;28;20400;-82
2022/04/26 23:37:59;;;;;;;14.30;12.05;;;;;;;;;;10474160;28;20937;-81
2022/04/26 23:43:01;;;;;;;15.15;12.82;;;;;;;;;;10476547;28;20440;-81
2022/04/26 23:48:04;;;;;;;15.02;13.43;;;;;;;;;;10474803;28;20425;-81
2022/04/26 23:53:07;;;;;;;13.85;12.38;;;;;;;;;;10476338;28;20409;-81
2022/04/26 23:58:09;;;;;;;14.73;13.13;;;;;;;;;;10474910;28;20477;-81
